sensor_id;sensor_type;location;lat;lon;timestamp;P1;durP1;ratioP1;P2;durP2;ratioP2
11431;SDS011;5772;50.940;6.782;2022-07-29T00:01:31;19.07;;;18.27;;
11431;SDS011;5772;50.940;6.782;2022-07-29T00:03:58;25.53;;;24.50;;
11431;SDS011;5772;50.940;6.782;2022-07-29T00:06:23;19.97;;;19.07;;
11431;SDS011;5772;50.940;6.782;2022-07-29T00:08:49;18.50;;;17.70;;
11431;SDS011;5772;50.940;6.782;2022-07-29T00:11:14;18.43;;;17.73;;
11431;SDS011;5772;50.940;6.782;2022-07-29T00:13:40;24.07;;;23.07;;
11431;SDS011;5772;50.940;6.782;2022-07-29T00:16:05;27.70;;;26.50;;
11431;SDS011;5772;50.940;6.782;2022-07-29T00:18:30;21.10;;;20.20;;
11431;SDS011;5772;50.940;6.782;2022-07-29T00:20:57;17.90;;;17.00;;
11431;SDS011;5772;50.940;6.782;2022-07-29T00:23:23;20.50;;;19.70;;
11431;SDS011;5772;50.940;6.782;2022-07-29T00:25:48;19.97;;;19.17;;
11431;SDS011;5772;50.940;6.782;2022-07-29T00:28:13;20.67;;;19.87;;
11431;SDS011;5772;50.940;6.782;2022-07-29T00:30:39;19.43;;;18.37;;
11431;SDS011;5772;50.940;6.782;2022-07-29T00:33:04;19.83;;;18.83;;
11431;SDS011;5772;50.940;6.782;2022-07-29T00:35:30;20.07;;;19.07;;
11431;SDS011;5772;50.940;6.782;2022-07-29T00:37:56;18.30;;;17.50;;
11431;SDS011;5772;50.940;6.782;2022-07-29T00:40:22;18.37;;;17.57;;
11431;SDS011;5772;50.940;6.782;2022-07-29T00:42:48;20.93;;;20.03;;
11431;SDS011;5772;50.940;6.782;2022-07-29T00:45:14;25.50;;;24.37;;
11431;SDS011;5772;50.940;6.782;2022-07-29T00:47:40;17.20;;;16.50;;
11431;SDS011;5772;50.940;6.782;2022-07-29T00:50:07;18.00;;;17.17;;
11431;SDS011;5772;50.940;6.782;2022-07-29T00:52:33;23.53;;;22.53;;
11431;SDS011;5772;50.940;6.782;2022-07-29T00:55:00;27.00;;;25.90;;
11431;SDS011;5772;50.940;6.782;2022-07-29T00:57:25;19.03;;;18.23;;
11431;SDS011;5772;50.940;6.782;2022-07-29T00:59:51;23.77;;;22.77;;
11431;SDS011;5772;50.940;6.782;2022-07-29T01:02:16;18.63;;;17.40;;
11431;SDS011;5772;50.940;6.782;2022-07-29T01:04:41;24.60;;;23.40;;
11431;SDS011;5772;50.940;6.782;2022-07-29T01:07:07;21.57;;;20.53;;
11431;SDS011;5772;50.940;6.782;2022-07-29T01:09:32;21.90;;;21.00;;
11431;SDS011;5772;50.940;6.782;2022-07-29T01:12:00;24.47;;;23.30;;
11431;SDS011;5772;50.940;6.782;2022-07-29T01:14:26;20.63;;;19.40;;
11431;SDS011;5772;50.940;6.782;2022-07-29T01:16:54;27.67;;;26.57;;
11431;SDS011;5772;50.940;6.782;2022-07-29T01:19:31;17.87;;;17.17;;
11431;SDS011;5772;50.940;6.782;2022-07-29T01:22:08;18.87;;;18.07;;
11431;SDS011;5772;50.940;6.782;2022-07-29T01:24:47;28.43;;;27.23;;
11431;SDS011;5772;50.940;6.782;2022-07-29T01:27:36;24.60;;;23.60;;
11431;SDS011;5772;50.940;6.782;2022-07-29T01:30:07;29.47;;;28.17;;
11431;SDS011;5772;50.940;6.782;2022-07-29T01:32:34;24.77;;;23.53;;
11431;SDS011;5772;50.940;6.782;2022-07-29T01:35:02;32.00;;;30.50;;
11431;SDS011;5772;50.940;6.782;2022-07-29T01:37:29;25.20;;;24.10;;
11431;SDS011;5772;50.940;6.782;2022-07-29T01:39:58;27.80;;;26.70;;
11431;SDS011;5772;50.940;6.782;2022-07-29T01:42:26;27.33;;;26.10;;
11431;SDS011;5772;50.940;6.782;2022-07-29T01:44:55;24.33;;;23.13;;
11431;SDS011;5772;50.940;6.782;2022-07-29T01:47:29;31.33;;;30.03;;
11431;SDS011;5772;50.940;6.782;2022-07-29T01:49:56;27.00;;;25.87;;
11431;SDS011;5772;50.940;6.782;2022-07-29T01:52:25;28.43;;;27.23;;
11431;SDS011;5772;50.940;6.782;2022-07-29T01:54:53;31.87;;;30.53;;
11431;SDS011;5772;50.940;6.782;2022-07-29T01:57:21;32.47;;;31.17;;
11431;SDS011;5772;50.940;6.782;2022-07-29T01:59:50;31.40;;;30.10;;
11431;SDS011;5772;50.940;6.782;2022-07-29T02:02:16;32.77;;;31.47;;
11431;SDS011;5772;50.940;6.782;2022-07-29T02:04:44;33.47;;;32.10;;
11431;SDS011;5772;50.940;6.782;2022-07-29T02:07:10;32.30;;;31.00;;
11431;SDS011;5772;50.940;6.782;2022-07-29T02:09:38;33.63;;;32.27;;
11431;SDS011;5772;50.940;6.782;2022-07-29T02:12:04;36.10;;;34.60;;
11431;SDS011;5772;50.940;6.782;2022-07-29T02:14:32;37.03;;;35.10;;
11431;SDS011;5772;50.940;6.782;2022-07-29T02:16:59;34.03;;;32.67;;
11431;SDS011;5772;50.940;6.782;2022-07-29T02:19:25;39.53;;;37.90;;
11431;SDS011;5772;50.940;6.782;2022-07-29T02:21:53;38.97;;;37.27;;
11431;SDS011;5772;50.940;6.782;2022-07-29T02:24:19;37.23;;;35.73;;
11431;SDS011;5772;50.940;6.782;2022-07-29T02:26:46;40.07;;;38.37;;
11431;SDS011;5772;50.940;6.782;2022-07-29T02:29:12;40.97;;;39.37;;
11431;SDS011;5772;50.940;6.782;2022-07-29T02:31:38;40.57;;;38.40;;
11431;SDS011;5772;50.940;6.782;2022-07-29T02:34:05;35.53;;;34.13;;
11431;SDS011;5772;50.940;6.782;2022-07-29T02:36:32;41.80;;;40.10;;
11431;SDS011;5772;50.940;6.782;2022-07-29T02:38:59;39.90;;;38.30;;
11431;SDS011;5772;50.940;6.782;2022-07-29T02:41:27;43.40;;;41.50;;
11431;SDS011;5772;50.940;6.782;2022-07-29T02:43:54;44.83;;;42.70;;
11431;SDS011;5772;50.940;6.782;2022-07-29T02:46:21;44.83;;;42.83;;
11431;SDS011;5772;50.940;6.782;2022-07-29T02:48:55;42.20;;;40.20;;
11431;SDS011;5772;50.940;6.782;2022-07-29T02:51:23;44.80;;;42.93;;
11431;SDS011;5772;50.940;6.782;2022-07-29T02:53:51;46.20;;;44.03;;
11431;SDS011;5772;50.940;6.782;2022-07-29T02:56:20;38.33;;;36.63;;
11431;SDS011;5772;50.940;6.782;2022-07-29T02:58:49;39.83;;;38.20;;
11431;SDS011;5772;50.940;6.782;2022-07-29T03:01:19;43.73;;;41.97;;
11431;SDS011;5772;50.940;6.782;2022-07-29T03:03:46;46.37;;;44.37;;
11431;SDS011;5772;50.940;6.782;2022-07-29T03:06:12;45.17;;;43.23;;
11431;SDS011;5772;50.940;6.782;2022-07-29T03:08:38;48.80;;;46.77;;
11431;SDS011;5772;50.940;6.782;2022-07-29T03:11:04;53.00;;;50.80;;
11431;SDS011;5772;50.940;6.782;2022-07-29T03:13:31;54.53;;;52.33;;
11431;SDS011;5772;50.940;6.782;2022-07-29T03:15:56;51.50;;;49.50;;
11431;SDS011;5772;50.940;6.782;2022-07-29T03:18:22;49.73;;;47.73;;
11431;SDS011;5772;50.940;6.782;2022-07-29T03:20:48;51.50;;;49.13;;
11431;SDS011;5772;50.940;6.782;2022-07-29T03:23:18;52.33;;;50.13;;
11431;SDS011;5772;50.940;6.782;2022-07-29T03:25:43;45.83;;;43.97;;
11431;SDS011;5772;50.940;6.782;2022-07-29T03:28:09;34.63;;;33.17;;
11431;SDS011;5772;50.940;6.782;2022-07-29T03:30:35;39.30;;;37.67;;
11431;SDS011;5772;50.940;6.782;2022-07-29T03:33:01;37.53;;;36.03;;
11431;SDS011;5772;50.940;6.782;2022-07-29T03:35:26;42.13;;;40.33;;
11431;SDS011;5772;50.940;6.782;2022-07-29T03:37:52;42.90;;;41.07;;
11431;SDS011;5772;50.940;6.782;2022-07-29T03:40:18;50.90;;;48.80;;
11431;SDS011;5772;50.940;6.782;2022-07-29T03:42:45;51.10;;;49.00;;
11431;SDS011;5772;50.940;6.782;2022-07-29T03:45:13;50.03;;;47.83;;
11431;SDS011;5772;50.940;6.782;2022-07-29T03:47:42;56.37;;;53.97;;
11431;SDS011;5772;50.940;6.782;2022-07-29T03:50:14;50.77;;;48.67;;
11431;SDS011;5772;50.940;6.782;2022-07-29T03:52:40;55.80;;;53.60;;
11431;SDS011;5772;50.940;6.782;2022-07-29T03:55:06;56.17;;;53.77;;
11431;SDS011;5772;50.940;6.782;2022-07-29T03:57:32;51.13;;;49.10;;
11431;SDS011;5772;50.940;6.782;2022-07-29T03:59:58;55.10;;;52.90;;
11431;SDS011;5772;50.940;6.782;2022-07-29T04:02:24;61.23;;;58.77;;
11431;SDS011;5772;50.940;6.782;2022-07-29T04:04:51;61.60;;;58.67;;
11431;SDS011;5772;50.940;6.782;2022-07-29T04:07:17;61.07;;;58.47;;
11431;SDS011;5772;50.940;6.782;2022-07-29T04:09:42;56.63;;;54.23;;
11431;SDS011;5772;50.940;6.782;2022-07-29T04:12:08;50.50;;;48.50;;
11431;SDS011;5772;50.940;6.782;2022-07-29T04:14:34;46.57;;;44.70;;
11431;SDS011;5772;50.940;6.782;2022-07-29T04:17:00;45.83;;;43.97;;
11431;SDS011;5772;50.940;6.782;2022-07-29T04:19:25;37.13;;;35.47;;
11431;SDS011;5772;50.940;6.782;2022-07-29T04:21:52;41.73;;;40.13;;
11431;SDS011;5772;50.940;6.782;2022-07-29T04:24:18;39.50;;;37.87;;
11431;SDS011;5772;50.940;6.782;2022-07-29T04:26:44;34.03;;;32.50;;
11431;SDS011;5772;50.940;6.782;2022-07-29T04:29:10;31.10;;;29.27;;
11431;SDS011;5772;50.940;6.782;2022-07-29T04:31:35;24.80;;;23.53;;
11431;SDS011;5772;50.940;6.782;2022-07-29T04:34:01;25.30;;;24.13;;
11431;SDS011;5772;50.940;6.782;2022-07-29T04:36:26;20.53;;;19.43;;
11431;SDS011;5772;50.940;6.782;2022-07-29T04:38:53;20.33;;;19.43;;
11431;SDS011;5772;50.940;6.782;2022-07-29T04:41:18;22.30;;;21.40;;
11431;SDS011;5772;50.940;6.782;2022-07-29T04:43:43;22.00;;;20.97;;
11431;SDS011;5772;50.940;6.782;2022-07-29T04:46:09;22.17;;;21.17;;
11431;SDS011;5772;50.940;6.782;2022-07-29T04:48:34;20.90;;;20.00;;
11431;SDS011;5772;50.940;6.782;2022-07-29T04:51:00;20.47;;;19.37;;
11431;SDS011;5772;50.940;6.782;2022-07-29T04:53:25;20.93;;;20.03;;
11431;SDS011;5772;50.940;6.782;2022-07-29T04:55:52;22.53;;;21.63;;
11431;SDS011;5772;50.940;6.782;2022-07-29T04:58:17;23.40;;;22.43;;
11431;SDS011;5772;50.940;6.782;2022-07-29T05:00:43;25.33;;;24.27;;
11431;SDS011;5772;50.940;6.782;2022-07-29T05:03:08;25.93;;;24.83;;
11431;SDS011;5772;50.940;6.782;2022-07-29T05:05:34;27.80;;;26.60;;
11431;SDS011;5772;50.940;6.782;2022-07-29T05:07:59;26.33;;;24.90;;
11431;SDS011;5772;50.940;6.782;2022-07-29T05:10:25;25.13;;;24.03;;
11431;SDS011;5772;50.940;6.782;2022-07-29T05:12:51;22.73;;;21.83;;
11431;SDS011;5772;50.940;6.782;2022-07-29T05:15:17;27.53;;;26.23;;
11431;SDS011;5772;50.940;6.782;2022-07-29T05:17:42;28.70;;;27.50;;
11431;SDS011;5772;50.940;6.782;2022-07-29T05:20:08;32.93;;;31.03;;
11431;SDS011;5772;50.940;6.782;2022-07-29T05:22:34;33.43;;;31.83;;
11431;SDS011;5772;50.940;6.782;2022-07-29T05:24:59;30.13;;;28.83;;
11431;SDS011;5772;50.940;6.782;2022-07-29T05:27:25;29.73;;;28.33;;
11431;SDS011;5772;50.940;6.782;2022-07-29T05:29:51;35.83;;;34.27;;
11431;SDS011;5772;50.940;6.782;2022-07-29T05:32:17;33.13;;;31.80;;
11431;SDS011;5772;50.940;6.782;2022-07-29T05:34:42;37.27;;;35.37;;
11431;SDS011;5772;50.940;6.782;2022-07-29T05:37:08;31.50;;;30.20;;
11431;SDS011;5772;50.940;6.782;2022-07-29T05:39:33;35.03;;;33.23;;
11431;SDS011;5772;50.940;6.782;2022-07-29T05:41:58;32.13;;;30.73;;
11431;SDS011;5772;50.940;6.782;2022-07-29T05:44:24;28.93;;;27.73;;
11431;SDS011;5772;50.940;6.782;2022-07-29T05:46:50;28.80;;;27.40;;
11431;SDS011;5772;50.940;6.782;2022-07-29T05:49:16;29.77;;;28.37;;
11431;SDS011;5772;50.940;6.782;2022-07-29T05:51:41;28.90;;;27.63;;
11431;SDS011;5772;50.940;6.782;2022-07-29T05:54:06;25.93;;;24.73;;
11431;SDS011;5772;50.940;6.782;2022-07-29T05:56:32;26.37;;;25.07;;
11431;SDS011;5772;50.940;6.782;2022-07-29T05:58:57;25.53;;;24.13;;
11431;SDS011;5772;50.940;6.782;2022-07-29T06:01:23;24.03;;;23.00;;
11431;SDS011;5772;50.940;6.782;2022-07-29T06:03:49;21.10;;;20.20;;
11431;SDS011;5772;50.940;6.782;2022-07-29T06:06:15;21.10;;;19.93;;
11431;SDS011;5772;50.940;6.782;2022-07-29T06:08:40;20.23;;;18.73;;
11431;SDS011;5772;50.940;6.782;2022-07-29T06:11:06;19.23;;;18.37;;
11431;SDS011;5772;50.940;6.782;2022-07-29T06:13:31;19.37;;;18.50;;
11431;SDS011;5772;50.940;6.782;2022-07-29T06:15:56;20.70;;;19.80;;
11431;SDS011;5772;50.940;6.782;2022-07-29T06:18:22;19.53;;;18.63;;
11431;SDS011;5772;50.940;6.782;2022-07-29T06:20:49;20.60;;;19.70;;
11431;SDS011;5772;50.940;6.782;2022-07-29T06:23:14;21.07;;;19.80;;
11431;SDS011;5772;50.940;6.782;2022-07-29T06:25:39;19.83;;;18.87;;
11431;SDS011;5772;50.940;6.782;2022-07-29T06:28:05;22.73;;;21.73;;
11431;SDS011;5772;50.940;6.782;2022-07-29T06:30:30;21.17;;;20.17;;
11431;SDS011;5772;50.940;6.782;2022-07-29T06:32:56;21.97;;;20.97;;
11431;SDS011;5772;50.940;6.782;2022-07-29T06:35:21;22.20;;;21.00;;
11431;SDS011;5772;50.940;6.782;2022-07-29T06:37:48;32.27;;;30.60;;
11431;SDS011;5772;50.940;6.782;2022-07-29T06:40:13;32.47;;;31.17;;
11431;SDS011;5772;50.940;6.782;2022-07-29T06:42:41;29.00;;;27.80;;
11431;SDS011;5772;50.940;6.782;2022-07-29T06:45:07;29.27;;;27.97;;
11431;SDS011;5772;50.940;6.782;2022-07-29T06:47:32;28.23;;;26.83;;
11431;SDS011;5772;50.940;6.782;2022-07-29T06:49:58;28.53;;;27.33;;
11431;SDS011;5772;50.940;6.782;2022-07-29T06:52:23;30.10;;;28.80;;
11431;SDS011;5772;50.940;6.782;2022-07-29T06:54:50;25.47;;;24.03;;
11431;SDS011;5772;50.940;6.782;2022-07-29T06:57:15;29.30;;;27.90;;
11431;SDS011;5772;50.940;6.782;2022-07-29T06:59:41;30.97;;;29.67;;
11431;SDS011;5772;50.940;6.782;2022-07-29T07:02:06;32.00;;;30.30;;
11431;SDS011;5772;50.940;6.782;2022-07-29T07:04:31;30.37;;;28.77;;
11431;SDS011;5772;50.940;6.782;2022-07-29T07:06:57;29.67;;;28.37;;
11431;SDS011;5772;50.940;6.782;2022-07-29T07:09:22;30.43;;;29.03;;
11431;SDS011;5772;50.940;6.782;2022-07-29T07:11:49;30.67;;;29.40;;
11431;SDS011;5772;50.940;6.782;2022-07-29T07:14:14;30.33;;;28.87;;
11431;SDS011;5772;50.940;6.782;2022-07-29T07:16:40;29.57;;;28.00;;
11431;SDS011;5772;50.940;6.782;2022-07-29T07:19:05;29.60;;;28.00;;
11431;SDS011;5772;50.940;6.782;2022-07-29T07:21:30;30.97;;;29.60;;
11431;SDS011;5772;50.940;6.782;2022-07-29T07:23:57;31.50;;;29.93;;
11431;SDS011;5772;50.940;6.782;2022-07-29T07:26:23;28.50;;;27.30;;
11431;SDS011;5772;50.940;6.782;2022-07-29T07:28:49;32.30;;;30.80;;
11431;SDS011;5772;50.940;6.782;2022-07-29T07:31:15;27.53;;;26.33;;
11431;SDS011;5772;50.940;6.782;2022-07-29T07:33:40;25.67;;;24.57;;
11431;SDS011;5772;50.940;6.782;2022-07-29T07:36:06;24.73;;;23.53;;
11431;SDS011;5772;50.940;6.782;2022-07-29T07:38:31;29.23;;;27.97;;
11431;SDS011;5772;50.940;6.782;2022-07-29T07:40:56;26.50;;;25.30;;
11431;SDS011;5772;50.940;6.782;2022-07-29T07:43:22;25.33;;;24.23;;
11431;SDS011;5772;50.940;6.782;2022-07-29T07:45:48;26.33;;;24.83;;
11431;SDS011;5772;50.940;6.782;2022-07-29T07:48:14;26.77;;;25.50;;
11431;SDS011;5772;50.940;6.782;2022-07-29T07:50:39;26.43;;;25.13;;
11431;SDS011;5772;50.940;6.782;2022-07-29T07:53:05;25.37;;;24.07;;
11431;SDS011;5772;50.940;6.782;2022-07-29T07:55:30;27.30;;;25.90;;
11431;SDS011;5772;50.940;6.782;2022-07-29T07:57:55;30.73;;;29.43;;
11431;SDS011;5772;50.940;6.782;2022-07-29T08:00:21;24.17;;;22.67;;
11431;SDS011;5772;50.940;6.782;2022-07-29T08:02:48;28.27;;;26.87;;
11431;SDS011;5772;50.940;6.782;2022-07-29T08:05:13;28.80;;;27.40;;
11431;SDS011;5772;50.940;6.782;2022-07-29T08:07:39;28.07;;;26.57;;
11431;SDS011;5772;50.940;6.782;2022-07-29T08:10:04;25.97;;;24.77;;
11431;SDS011;5772;50.940;6.782;2022-07-29T08:12:30;25.63;;;24.53;;
11431;SDS011;5772;50.940;6.782;2022-07-29T08:14:56;25.47;;;24.33;;
11431;SDS011;5772;50.940;6.782;2022-07-29T08:17:21;28.93;;;27.53;;
11431;SDS011;5772;50.940;6.782;2022-07-29T08:19:48;26.37;;;25.07;;
11431;SDS011;5772;50.940;6.782;2022-07-29T08:22:13;32.83;;;31.33;;
11431;SDS011;5772;50.940;6.782;2022-07-29T08:24:39;35.93;;;34.20;;
11431;SDS011;5772;50.940;6.782;2022-07-29T08:27:04;31.10;;;29.50;;
11431;SDS011;5772;50.940;6.782;2022-07-29T08:29:29;34.07;;;32.57;;
11431;SDS011;5772;50.940;6.782;2022-07-29T08:31:55;30.67;;;29.27;;
11431;SDS011;5772;50.940;6.782;2022-07-29T08:34:20;33.80;;;32.33;;
11431;SDS011;5772;50.940;6.782;2022-07-29T08:36:47;33.63;;;32.13;;
11431;SDS011;5772;50.940;6.782;2022-07-29T08:39:12;32.83;;;31.43;;
11431;SDS011;5772;50.940;6.782;2022-07-29T08:41:38;30.70;;;29.30;;
11431;SDS011;5772;50.940;6.782;2022-07-29T08:44:03;29.80;;;28.40;;
11431;SDS011;5772;50.940;6.782;2022-07-29T08:46:29;30.67;;;29.17;;
11431;SDS011;5772;50.940;6.782;2022-07-29T08:48:54;37.83;;;36.23;;
11431;SDS011;5772;50.940;6.782;2022-07-29T08:51:20;39.37;;;37.63;;
11431;SDS011;5772;50.940;6.782;2022-07-29T08:53:48;37.77;;;36.07;;
11431;SDS011;5772;50.940;6.782;2022-07-29T08:56:14;37.30;;;35.60;;
11431;SDS011;5772;50.940;6.782;2022-07-29T08:58:40;39.23;;;37.53;;
11431;SDS011;5772;50.940;6.782;2022-07-29T09:01:06;38.33;;;36.33;;
11431;SDS011;5772;50.940;6.782;2022-07-29T09:03:32;38.80;;;36.97;;
11431;SDS011;5772;50.940;6.782;2022-07-29T09:05:59;38.17;;;36.07;;
11431;SDS011;5772;50.940;6.782;2022-07-29T09:08:25;36.33;;;34.63;;
11431;SDS011;5772;50.940;6.782;2022-07-29T09:10:52;34.47;;;33.00;;
11431;SDS011;5772;50.940;6.782;2022-07-29T09:13:18;28.60;;;27.40;;
11431;SDS011;5772;50.940;6.782;2022-07-29T09:15:43;34.40;;;32.70;;
11431;SDS011;5772;50.940;6.782;2022-07-29T09:18:09;30.97;;;29.57;;
11431;SDS011;5772;50.940;6.782;2022-07-29T09:20:34;18.70;;;17.80;;
11431;SDS011;5772;50.940;6.782;2022-07-29T09:23:06;25.23;;;23.87;;
11431;SDS011;5772;50.940;6.782;2022-07-29T09:25:33;20.80;;;19.80;;
11431;SDS011;5772;50.940;6.782;2022-07-29T09:28:06;19.15;;;18.35;;
11431;SDS011;5772;50.940;6.782;2022-07-29T09:30:31;20.65;;;19.20;;
11431;SDS011;5772;50.940;6.782;2022-07-29T09:32:57;18.80;;;17.90;;
11431;SDS011;5772;50.940;6.782;2022-07-29T09:35:25;18.85;;;18.05;;
11431;SDS011;5772;50.940;6.782;2022-07-29T09:37:50;18.95;;;18.15;;
11431;SDS011;5772;50.940;6.782;2022-07-29T09:40:16;18.83;;;18.02;;
11431;SDS011;5772;50.940;6.782;2022-07-29T09:42:42;18.70;;;17.80;;
11431;SDS011;5772;50.940;6.782;2022-07-29T09:45:10;19.30;;;18.45;;
11431;SDS011;5772;50.940;6.782;2022-07-29T09:47:42;18.45;;;17.45;;
11431;SDS011;5772;50.940;6.782;2022-07-29T09:50:09;20.50;;;19.15;;
11431;SDS011;5772;50.940;6.782;2022-07-29T09:52:41;20.95;;;19.60;;
11431;SDS011;5772;50.940;6.782;2022-07-29T09:55:09;19.08;;;18.23;;
11431;SDS011;5772;50.940;6.782;2022-07-29T09:57:35;24.63;;;23.52;;
11431;SDS011;5772;50.940;6.782;2022-07-29T10:00:03;21.05;;;19.92;;
11431;SDS011;5772;50.940;6.782;2022-07-29T10:02:31;19.50;;;18.70;;
11431;SDS011;5772;50.940;6.782;2022-07-29T10:04:58;21.30;;;20.25;;
11431;SDS011;5772;50.940;6.782;2022-07-29T10:07:24;22.48;;;21.35;;
11431;SDS011;5772;50.940;6.782;2022-07-29T10:09:52;21.35;;;20.35;;
11431;SDS011;5772;50.940;6.782;2022-07-29T10:12:18;18.08;;;17.27;;
11431;SDS011;5772;50.940;6.782;2022-07-29T10:14:43;19.08;;;18.17;;
11431;SDS011;5772;50.940;6.782;2022-07-29T10:17:09;18.73;;;17.85;;
11431;SDS011;5772;50.940;6.782;2022-07-29T10:19:37;17.10;;;16.13;;
11431;SDS011;5772;50.940;6.782;2022-07-29T10:22:04;15.93;;;14.93;;
11431;SDS011;5772;50.940;6.782;2022-07-29T10:24:30;15.82;;;14.82;;
11431;SDS011;5772;50.940;6.782;2022-07-29T10:26:56;13.35;;;12.75;;
11431;SDS011;5772;50.940;6.782;2022-07-29T10:29:23;14.15;;;13.45;;
11431;SDS011;5772;50.940;6.782;2022-07-29T10:31:49;15.15;;;14.25;;
11431;SDS011;5772;50.940;6.782;2022-07-29T10:34:22;13.77;;;13.18;;
11431;SDS011;5772;50.940;6.782;2022-07-29T10:36:56;13.07;;;12.43;;
11431;SDS011;5772;50.940;6.782;2022-07-29T10:39:33;12.70;;;11.95;;
11431;SDS011;5772;50.940;6.782;2022-07-29T10:42:11;13.98;;;13.18;;
11431;SDS011;5772;50.940;6.782;2022-07-29T10:44:40;15.18;;;14.32;;
11431;SDS011;5772;50.940;6.782;2022-07-29T10:47:07;12.80;;;12.20;;
11431;SDS011;5772;50.940;6.782;2022-07-29T10:49:33;13.88;;;13.25;;
11431;SDS011;5772;50.940;6.782;2022-07-29T10:52:01;13.32;;;12.50;;
11431;SDS011;5772;50.940;6.782;2022-07-29T10:54:39;13.05;;;12.32;;
11431;SDS011;5772;50.940;6.782;2022-07-29T11:02:55;12.93;;;12.20;;
11431;SDS011;5772;50.940;6.782;2022-07-29T11:05:21;12.35;;;11.80;;
11431;SDS011;5772;50.940;6.782;2022-07-29T11:10:45;13.15;;;12.52;;
11431;SDS011;5772;50.940;6.782;2022-07-29T11:13:11;13.57;;;12.57;;
11431;SDS011;5772;50.940;6.782;2022-07-29T11:15:51;12.85;;;12.13;;
11431;SDS011;5772;50.940;6.782;2022-07-29T11:18:17;13.38;;;12.68;;
11431;SDS011;5772;50.940;6.782;2022-07-29T11:20:43;12.88;;;12.18;;
11431;SDS011;5772;50.940;6.782;2022-07-29T11:23:21;13.07;;;12.48;;
11431;SDS011;5772;50.940;6.782;2022-07-29T11:28:38;12.63;;;12.02;;
11431;SDS011;5772;50.940;6.782;2022-07-29T11:31:14;14.52;;;13.82;;
11431;SDS011;5772;50.940;6.782;2022-07-29T11:33:41;14.27;;;13.48;;
11431;SDS011;5772;50.940;6.782;2022-07-29T11:36:07;11.68;;;11.07;;
11431;SDS011;5772;50.940;6.782;2022-07-29T11:38:35;13.07;;;11.98;;
11431;SDS011;5772;50.940;6.782;2022-07-29T11:43:46;12.38;;;11.60;;
11431;SDS011;5772;50.940;6.782;2022-07-29T11:46:11;12.10;;;11.50;;
11431;SDS011;5772;50.940;6.782;2022-07-29T11:48:37;11.50;;;10.90;;
11431;SDS011;5772;50.940;6.782;2022-07-29T11:51:08;11.25;;;10.75;;
11431;SDS011;5772;50.940;6.782;2022-07-29T11:53:36;12.18;;;11.57;;
11431;SDS011;5772;50.940;6.782;2022-07-29T11:56:01;11.55;;;10.90;;
11431;SDS011;5772;50.940;6.782;2022-07-29T11:58:26;11.55;;;11.05;;
11431;SDS011;5772;50.940;6.782;2022-07-29T12:00:52;11.20;;;10.60;;
11431;SDS011;5772;50.940;6.782;2022-07-29T12:03:23;11.65;;;10.90;;
11431;SDS011;5772;50.940;6.782;2022-07-29T12:05:49;11.77;;;11.18;;
11431;SDS011;5772;50.940;6.782;2022-07-29T12:08:15;12.45;;;11.85;;
11431;SDS011;5772;50.940;6.782;2022-07-29T12:10:43;12.52;;;11.98;;
11431;SDS011;5772;50.940;6.782;2022-07-29T12:13:08;12.00;;;11.30;;
11431;SDS011;5772;50.940;6.782;2022-07-29T12:15:35;11.48;;;10.98;;
11431;SDS011;5772;50.940;6.782;2022-07-29T12:18:09;11.90;;;11.40;;
11431;SDS011;5772;50.940;6.782;2022-07-29T12:20:35;12.45;;;11.75;;
11431;SDS011;5772;50.940;6.782;2022-07-29T12:23:04;12.38;;;11.77;;
11431;SDS011;5772;50.940;6.782;2022-07-29T12:25:32;12.63;;;11.93;;
11431;SDS011;5772;50.940;6.782;2022-07-29T12:28:01;11.63;;;11.13;;
11431;SDS011;5772;50.940;6.782;2022-07-29T12:30:37;13.05;;;12.48;;
11431;SDS011;5772;50.940;6.782;2022-07-29T12:33:13;12.15;;;11.55;;
11431;SDS011;5772;50.940;6.782;2022-07-29T12:35:43;11.82;;;11.07;;
11431;SDS011;5772;50.940;6.782;2022-07-29T12:38:10;13.10;;;12.55;;
11431;SDS011;5772;50.940;6.782;2022-07-29T12:40:36;12.35;;;11.75;;
11431;SDS011;5772;50.940;6.782;2022-07-29T12:43:06;12.85;;;12.25;;
11431;SDS011;5772;50.940;6.782;2022-07-29T12:45:35;13.52;;;12.82;;
11431;SDS011;5772;50.940;6.782;2022-07-29T12:48:01;13.43;;;12.73;;
11431;SDS011;5772;50.940;6.782;2022-07-29T12:50:26;15.57;;;14.68;;
11431;SDS011;5772;50.940;6.782;2022-07-29T12:52:51;14.70;;;13.65;;
11431;SDS011;5772;50.940;6.782;2022-07-29T12:58:03;13.98;;;13.38;;
11431;SDS011;5772;50.940;6.782;2022-07-29T13:00:30;13.02;;;12.43;;
11431;SDS011;5772;50.940;6.782;2022-07-29T13:02:56;13.05;;;12.38;;
11431;SDS011;5772;50.940;6.782;2022-07-29T13:05:22;12.88;;;12.27;;
11431;SDS011;5772;50.940;6.782;2022-07-29T13:07:47;13.60;;;13.00;;
11431;SDS011;5772;50.940;6.782;2022-07-29T13:10:14;13.00;;;12.40;;
11431;SDS011;5772;50.940;6.782;2022-07-29T13:15:27;13.10;;;11.90;;
11431;SDS011;5772;50.940;6.782;2022-07-29T13:17:53;13.32;;;12.73;;
11431;SDS011;5772;50.940;6.782;2022-07-29T13:20:22;14.00;;;13.30;;
11431;SDS011;5772;50.940;6.782;2022-07-29T13:22:48;14.80;;;13.93;;
11431;SDS011;5772;50.940;6.782;2022-07-29T13:25:14;13.25;;;12.60;;
11431;SDS011;5772;50.940;6.782;2022-07-29T13:27:39;12.38;;;11.75;;
11431;SDS011;5772;50.940;6.782;2022-07-29T13:30:05;13.65;;;12.75;;
11431;SDS011;5772;50.940;6.782;2022-07-29T13:32:33;13.90;;;13.23;;
11431;SDS011;5772;50.940;6.782;2022-07-29T13:35:00;13.90;;;13.13;;
11431;SDS011;5772;50.940;6.782;2022-07-29T13:37:28;14.43;;;13.43;;
11431;SDS011;5772;50.940;6.782;2022-07-29T13:39:53;13.18;;;12.50;;
11431;SDS011;5772;50.940;6.782;2022-07-29T13:42:19;15.65;;;14.65;;
11431;SDS011;5772;50.940;6.782;2022-07-29T13:44:44;13.50;;;12.85;;
11431;SDS011;5772;50.940;6.782;2022-07-29T13:47:10;13.80;;;13.20;;
11431;SDS011;5772;50.940;6.782;2022-07-29T13:49:35;14.70;;;13.90;;
11431;SDS011;5772;50.940;6.782;2022-07-29T13:52:02;12.98;;;12.07;;
11431;SDS011;5772;50.940;6.782;2022-07-29T13:54:28;13.85;;;13.10;;
11431;SDS011;5772;50.940;6.782;2022-07-29T13:56:53;12.05;;;11.35;;
11431;SDS011;5772;50.940;6.782;2022-07-29T13:59:19;13.38;;;12.65;;
11431;SDS011;5772;50.940;6.782;2022-07-29T14:01:44;12.65;;;12.05;;
11431;SDS011;5772;50.940;6.782;2022-07-29T14:04:10;12.52;;;11.93;;
11431;SDS011;5772;50.940;6.782;2022-07-29T14:06:36;12.77;;;12.15;;
11431;SDS011;5772;50.940;6.782;2022-07-29T14:09:03;14.52;;;13.40;;
11431;SDS011;5772;50.940;6.782;2022-07-29T14:11:29;13.55;;;12.88;;
11431;SDS011;5772;50.940;6.782;2022-07-29T14:13:54;13.93;;;13.18;;
11431;SDS011;5772;50.940;6.782;2022-07-29T14:16:19;13.65;;;12.75;;
11431;SDS011;5772;50.940;6.782;2022-07-29T14:18:45;12.63;;;11.95;;
11431;SDS011;5772;50.940;6.782;2022-07-29T14:21:10;14.82;;;13.93;;
11431;SDS011;5772;50.940;6.782;2022-07-29T14:23:36;13.55;;;12.85;;
11431;SDS011;5772;50.940;6.782;2022-07-29T14:26:02;13.55;;;12.60;;
11431;SDS011;5772;50.940;6.782;2022-07-29T14:28:28;12.88;;;12.30;;
11431;SDS011;5772;50.940;6.782;2022-07-29T14:30:53;13.38;;;12.77;;
11431;SDS011;5772;50.940;6.782;2022-07-29T14:33:18;14.20;;;13.40;;
11431;SDS011;5772;50.940;6.782;2022-07-29T14:35:44;14.13;;;13.43;;
11431;SDS011;5772;50.940;6.782;2022-07-29T14:38:10;14.57;;;13.80;;
11431;SDS011;5772;50.940;6.782;2022-07-29T14:40:35;14.20;;;13.52;;
11431;SDS011;5772;50.940;6.782;2022-07-29T14:43:02;13.40;;;12.80;;
11431;SDS011;5772;50.940;6.782;2022-07-29T14:45:27;13.48;;;12.77;;
11431;SDS011;5772;50.940;6.782;2022-07-29T14:47:53;14.20;;;13.20;;
11431;SDS011;5772;50.940;6.782;2022-07-29T14:50:18;14.32;;;13.52;;